Terminal Aerodrome Forecast
Issued by NWS Grand Junction, CO

Home | Current Version | Previous Version | Text Only | Print | Product List | Glossary On
Versions: 1 2 3 4 5 6 7 8 9 10 11 12 13 14 15 16 17 18 19 20 21 22 23 24 25 26
000
FTUS45 KGJT 302323
TAFGJT
TAF
KGJT 302323Z 0100/0124 25008KT P6SM VCTS SCT100CB BKN180
      TEMPO 0100/0102 VRB15G29KT -TSRA BKN100CB
     FM010300 07010KT P6SM FEW120 BKN200
     FM010600 10008KT P6SM SCT200
     FM011200 14008KT P6SM SCT200
     FM011900 26007KT P6SM FEW100 SCT200=

USA.gov is the U.S. government's official web portal to all federal, state and local government web resources and services.